Time;durP1;ratioP1;P1;durP2;ratioP2;P2;SDS_P1;SDS_P2;PMS_P1;PMS_P2;Temp;Humidity;BMP_temperature;BMP_pressure;BME280_temperature;BME280_humidity;BME280_pressure;Samples;Min_cycle;Max_cycle;Signal;HPM_P1;HPM_P2
2023/07/13 00:01:50;;;;;;;6.60;4.60;;;;;;;18.48;81.58;99043.23;436582;1253;141315;-65
2023/07/13 00:11:58;;;;;;;6.20;4.90;;;;;;;18.44;82.13;99048.95;436476;1253;140775;-66
2023/07/13 00:22:04;;;;;;;5.00;4.30;;;;;;;18.39;82.54;99047.38;439235;1253;139443;-66
2023/07/13 00:32:11;;;;;;;6.90;4.40;;;;;;;18.38;83.33;99041.70;436380;1253;139688;-66
2023/07/13 00:42:17;;;;;;;6.70;4.10;;;;;;;18.32;83.38;99043.70;436400;1254;140288;-65
2023/07/13 00:52:22;;;;;;;4.30;4.00;;;;;;;18.27;83.31;99045.66;436947;1251;138603;-68
2023/07/13 01:02:31;;;;;;;5.00;4.50;;;;;;;18.23;83.39;99050.45;436518;1251;139539;-65
2023/07/13 01:12:35;;;;;;;;;;;;;;;18.19;84.10;99052.11;437000;1253;139480;-65
2023/07/13 01:22:41;;;;;;;8.70;4.40;;;;;;;18.15;84.44;99029.27;436661;1253;126262;-66
2023/07/13 01:32:47;;;;;;;4.60;3.70;;;;;;;18.09;84.03;99033.30;436445;1251;140691;-65
2023/07/13 01:42:53;;;;;;;4.40;4.10;;;;;;;18.00;84.38;99041.41;436518;1253;139830;-67
2023/07/13 01:52:59;;;;;;;4.90;4.40;;;;;;;17.93;84.79;99057.59;436690;1253;139685;-65
2023/07/13 02:03:05;;;;;;;6.10;5.20;;;;;;;17.91;85.01;99054.23;436549;1251;138780;-65
2023/07/13 02:13:11;;;;;;;7.20;5.70;;;;;;;17.87;85.77;99041.59;436699;1251;138860;-65
2023/07/13 02:23:16;;;;;;;5.20;4.30;;;;;;;17.77;86.26;99038.83;436114;1253;138956;-64
2023/07/13 02:33:22;;;;;;;6.40;4.60;;;;;;;17.75;86.56;99035.73;436382;1251;184235;-64
2023/07/13 02:43:28;;;;;;;6.30;4.70;;;;;;;17.75;86.49;99029.29;436460;1253;140667;-64
2023/07/13 02:53:35;;;;;;;5.70;5.20;;;;;;;17.74;87.00;99032.27;436558;1254;138754;-64
2023/07/13 03:03:41;;;;;;;5.90;5.30;;;;;;;17.75;87.47;99027.04;437038;1253;138917;-65
2023/07/13 03:13:49;;;;;;;6.10;5.20;;;;;;;17.94;87.47;99029.87;436951;1251;139377;-65
2023/07/13 03:23:54;;;;;;;7.70;6.20;;;;;;;19.60;87.58;99028.19;437451;1253;139777;-65
2023/07/13 03:34:00;;;;;;;6.90;6.00;;;;;;;22.11;80.30;99027.73;437618;1253;139269;-65
2023/07/13 03:44:06;;;;;;;7.90;5.60;;;;;;;21.30;75.95;99032.44;437584;1251;138982;-65
2023/07/13 03:54:12;;;;;;;5.80;5.10;;;;;;;20.45;77.02;99051.63;437226;1251;138749;-65
2023/07/13 04:04:18;;;;;;;7.80;5.30;;;;;;;20.02;78.15;99067.54;437277;1251;138808;-66
2023/07/13 04:14:24;;;;;;;10.10;6.50;;;;;;;19.83;78.99;99067.06;437139;1253;139866;-66
2023/07/13 04:24:30;;;;;;;8.10;6.90;;;;;;;19.64;79.40;99074.64;437189;1253;140624;-66
2023/07/13 04:34:35;;;;;;;12.60;8.00;;;;;;;19.64;79.63;99076.58;437739;1251;139004;-65
2023/07/13 04:44:41;;;;;;;8.10;6.50;;;;;;;19.91;79.22;99075.95;437571;1248;140055;-65
2023/07/13 04:54:47;;;;;;;7.80;6.90;;;;;;;20.61;78.46;99090.06;437076;1252;139369;-64
2023/07/13 05:04:53;;;;;;;9.40;6.40;;;;;;;21.34;76.50;99094.48;437220;1252;140607;-65
2023/07/13 05:14:59;;;;;;;10.70;6.70;;;;;;;22.79;74.66;99102.54;437101;1251;139840;-65
2023/07/13 05:25:06;;;;;;;6.50;5.60;;;;;;;26.45;69.70;99109.54;437408;1252;141184;-65
2023/07/13 05:35:12;;;;;;;7.40;5.10;;;;;;;30.72;60.29;99109.80;437365;1253;141061;-66
2023/07/13 05:45:18;;;;;;;11.30;6.90;;;;;;;30.57;55.52;99115.61;437156;1253;138856;-64
2023/07/13 05:55:24;;;;;;;12.30;6.50;;;;;;;33.84;52.79;99111.13;436763;1251;138812;-65
2023/07/13 06:05:29;;;;;;;11.90;6.30;;;;;;;36.84;45.48;99102.33;436913;1251;138780;-65
2023/07/13 06:15:35;;;;;;;8.30;5.90;;;;;;;36.33;42.45;99103.60;436763;1251;138871;-63
2023/07/13 06:25:40;;;;;;;;;;;;;;;34.56;42.70;99098.40;436605;1251;138283;-62
2023/07/13 06:35:46;;;;;;;6.10;5.50;;;;;;;37.35;39.91;99099.52;436930;1252;125089;-62
2023/07/13 06:45:52;;;;;;;7.00;4.10;;;;;;;39.27;37.00;99089.08;437171;1253;138112;-63
2023/07/13 06:55:58;;;;;;;6.50;4.30;;;;;;;44.96;32.19;99085.33;437097;1253;138533;-63
2023/07/13 07:06:12;;;;;;;5.00;4.50;;;;;;;48.79;27.13;99088.89;437038;1248;139159;-68
2023/07/13 07:16:18;;;;;;;5.20;4.00;;;;;;;44.53;26.97;99083.63;437301;1248;138115;-66
2023/07/13 07:26:24;;;;;;;7.20;5.60;;;;;;;40.62;28.44;99088.15;437380;1248;138812;-66
2023/07/13 07:36:35;;;;;;;9.10;6.80;;;;;;;35.95;31.76;99091.16;437006;1251;150061;-66
2023/07/13 07:46:43;;;;;;;10.60;5.20;;;;;;;32.39;35.39;99118.69;437457;1252;138127;-65
2023/07/13 07:56:49;;;;;;;7.30;4.60;;;;;;;29.70;38.96;99163.27;437637;1251;138234;-65
2023/07/13 08:06:58;;;;;;;9.50;3.80;;;;;;;27.52;42.04;99190.95;437551;1253;140124;-64
2023/07/13 08:17:05;;;;;;;9.50;6.00;;;;;;;26.11;45.34;99224.44;437485;1251;138021;-64
2023/07/13 08:27:14;;;;;;;7.80;5.40;;;;;;;24.75;48.46;99243.67;437340;1252;138252;-67
2023/07/13 08:37:20;;;;;;;7.70;3.70;;;;;;;23.79;50.94;99246.84;437663;1247;138778;-72
2023/07/13 08:47:27;;;;;;;6.80;2.70;;;;;;;22.98;53.46;99249.07;440176;1248;139365;-71
2023/07/13 08:57:35;;;;;;;4.30;3.50;;;;;;;22.33;55.21;99244.17;439910;1248;138805;-75
2023/07/13 09:07:54;;;;;;;3.80;2.30;;;;;;;21.59;57.24;99245.75;440385;1250;138560;-68
2023/07/13 09:18:05;;;;;;;3.70;2.40;;;;;;;21.29;59.04;99273.55;437562;1250;138883;-68
2023/07/13 09:28:16;;;;;;;5.80;2.70;;;;;;;21.23;60.31;99278.44;438687;1248;138517;-79
2023/07/13 09:38:26;;;;;;;3.80;2.20;;;;;;;21.02;60.99;99273.11;439942;1252;138722;-76
2023/07/13 09:48:40;;;;;;;5.50;2.40;;;;;;;21.16;61.90;99262.30;439706;1253;138906;-71
2023/07/13 09:58:45;;;;;;;5.50;2.40;;;;;;;21.41;62.34;99250.69;440265;1251;139384;-72
2023/07/13 10:08:52;;;;;;;3.60;3.00;;;;;;;21.22;62.90;99252.75;439694;1250;139747;-68
2023/07/13 10:19:01;;;;;;;3.60;2.90;;;;;;;21.33;63.80;99261.55;437166;1248;138783;-69
2023/07/13 10:29:13;;;;;;;4.40;3.00;;;;;;;21.37;64.01;99265.73;438655;1251;139125;-64
2023/07/13 10:39:23;;;;;;;7.80;3.30;;;;;;;21.63;64.65;99260.16;437145;1249;138871;-68
2023/07/13 10:49:31;;;;;;;2.50;2.30;;;;;;;21.86;64.67;99259.09;441496;1250;139459;-65
2023/07/13 10:59:37;;;;;;;5.10;2.50;;;;;;;21.81;64.72;99266.58;436995;1248;138762;-61
2023/07/13 11:09:47;;;;;;;3.10;2.30;;;;;;;21.56;65.47;99261.96;437686;1252;139366;-73
2023/07/13 11:19:54;;;;;;;4.40;1.80;;;;;;;21.39;66.12;99259.14;437513;1252;140237;-71
2023/07/13 11:30:21;;;;;;;5.00;2.00;;;;;;;21.44;66.70;99249.83;437196;1250;140688;-58
2023/07/13 11:40:30;;;;;;;2.70;2.40;;;;;;;21.52;66.65;99246.63;437140;1253;139332;-57
2023/07/13 11:51:04;;;;;;;3.90;2.50;;;;;;;21.60;67.42;99254.06;438422;1252;139195;-83
2023/07/13 12:01:22;;;;;;;3.20;2.50;;;;;;;21.61;67.58;99250.19;439605;1248;139716;-70
2023/07/13 12:11:28;;;;;;;5.30;2.70;;;;;;;21.54;68.04;99257.33;438700;1249;139712;-67
2023/07/13 12:21:42;;;;;;;3.60;2.50;;;;;;;21.82;68.42;99268.08;437445;1252;139385;-67
2023/07/13 12:31:52;;;;;;;2.40;2.20;;;;;;;22.05;67.32;99270.91;439267;1248;138830;-75
2023/07/13 12:42:17;;;;;;;4.00;2.40;;;;;;;22.24;65.97;99275.52;439933;1252;139180;-74
2023/07/13 12:52:30;;;;;;;2.20;2.10;;;;;;;22.10;65.20;99277.52;440651;1251;139904;-75
2023/07/13 13:02:36;;;;;;;5.60;2.70;;;;;;;22.56;64.71;99267.09;439279;1248;138698;-68
2023/07/13 13:12:43;;;;;;;4.10;2.60;;;;;;;23.06;63.99;99270.95;438910;1250;140495;-72
2023/07/13 13:22:49;;;;;;;4.30;2.30;;;;;;;23.07;63.56;99268.61;439873;1248;138913;-66
2023/07/13 13:32:54;;;;;;;4.60;2.40;;;;;;;23.09;63.61;99268.89;437798;1251;139337;-68
2023/07/13 13:43:00;;;;;;;3.70;2.10;;;;;;;23.26;63.06;99270.73;437187;1251;138785;-65
2023/07/13 13:53:08;;;;;;;4.30;2.30;;;;;;;23.40;62.52;99269.55;437296;1251;138829;-67
2023/07/13 14:03:19;;;;;;;3.70;2.00;;;;;;;23.61;61.82;99283.93;437201;1252;139222;-67
2023/07/13 14:13:29;;;;;;;4.10;2.60;;;;;;;23.49;61.78;99294.86;437133;1248;138861;-67
2023/07/13 14:23:35;;;;;;;5.90;2.60;;;;;;;23.29;62.02;99304.94;438205;1252;138671;-68
2023/07/13 14:33:45;;;;;;;7.30;3.00;;;;;;;23.24;62.37;99306.47;437210;1248;138911;-67
2023/07/13 14:43:51;;;;;;;6.90;3.80;;;;;;;23.35;62.78;99308.88;437166;1252;139983;-67
2023/07/13 14:53:56;;;;;;;2.60;1.90;;;;;;;23.42;62.39;99304.84;437080;1248;139470;-68
2023/07/13 15:04:03;;;;;;;3.50;1.60;;;;;;;23.68;61.78;99305.80;438606;1253;139862;-73
2023/07/13 15:14:09;;;;;;;3.10;1.80;;;;;;;23.93;60.80;99314.79;439945;1252;139609;-73
2023/07/13 15:24:15;;;;;;;6.20;2.00;;;;;;;24.41;59.83;99307.42;439759;1248;139427;-72
2023/07/13 15:34:27;;;;;;;3.20;1.70;;;;;;;25.18;58.17;99284.85;439896;1248;139864;-72
2023/07/13 15:44:34;;;;;;;3.70;2.00;;;;;;;25.37;56.30;99283.31;440077;1250;138687;-72
2023/07/13 15:54:40;;;;;;;2.30;2.10;;;;;;;25.39;55.34;99270.42;440156;1252;139352;-72
2023/07/13 16:04:46;;;;;;;2.10;1.80;;;;;;;25.51;54.19;99270.55;440025;1252;138641;-71
2023/07/13 16:14:52;;;;;;;4.00;2.10;;;;;;;25.26;53.58;99271.87;440190;1253;137994;-73
2023/07/13 16:25:00;;;;;;;1.90;1.60;;;;;;;24.83;53.75;99280.51;440489;1248;139921;-73
2023/07/13 16:35:08;;;;;;;2.00;1.90;;;;;;;24.58;54.55;99278.84;440822;1248;137919;-71
2023/07/13 16:45:16;;;;;;;4.60;2.10;;;;;;;24.24;55.76;99298.30;440180;1252;138364;-67
2023/07/13 16:55:27;;;;;;;;;;;;;;;23.90;56.81;99317.56;439455;1252;138517;-69
2023/07/13 17:05:36;;;;;;;2.60;2.10;;;;;;;23.64;57.60;99324.27;440236;1252;124780;-68
2023/07/13 17:15:43;;;;;;;4.30;2.70;;;;;;;23.33;58.46;99321.77;439774;1249;141123;-70
2023/07/13 17:25:52;;;;;;;3.90;3.40;;;;;;;22.83;59.22;99310.69;438424;1252;138318;-70
2023/07/13 17:35:59;;;;;;;4.30;3.00;;;;;;;22.29;61.06;99273.99;441583;1252;138482;-70
2023/07/13 17:46:08;;;;;;;11.90;4.70;;;;;;;21.97;62.48;99313.19;439565;1252;139188;-75
2023/07/13 17:56:16;;;;;;;5.60;2.50;;;;;;;20.95;65.27;99409.08;437928;1248;140167;-71
2023/07/13 18:06:29;;;;;;;2.70;1.50;;;;;;;18.78;68.27;99395.73;438385;1253;140755;-70
2023/07/13 18:16:36;;;;;;;3.20;2.40;;;;;;;18.14;71.09;99376.39;437812;1248;138919;-72
2023/07/13 18:26:43;;;;;;;3.00;2.10;;;;;;;18.19;71.65;99356.23;437776;1253;139743;-69
2023/07/13 18:36:49;;;;;;;6.00;3.10;;;;;;;18.09;72.98;99359.14;437077;1251;138952;-67
2023/07/13 18:46:56;;;;;;;2.60;2.40;;;;;;;17.76;74.24;99369.23;438362;1253;140158;-71
2023/07/13 18:57:04;;;;;;;3.80;2.80;;;;;;;17.34;75.69;99371.92;437308;1248;139655;-72
2023/07/13 19:07:12;;;;;;;3.10;2.80;;;;;;;16.96;76.59;99376.64;440244;1252;139090;-71
2023/07/13 19:17:19;;;;;;;4.10;3.70;;;;;;;16.69;78.05;99394.48;437674;1253;139470;-70
2023/07/13 19:27:25;;;;;;;15.60;4.40;;;;;;;16.52;79.39;99409.84;437451;1252;139183;-72
2023/07/13 19:37:31;;;;;;;5.00;4.20;;;;;;;16.30;80.26;99407.11;437098;1252;147653;-71
2023/07/13 19:47:37;;;;;;;3.90;3.60;;;;;;;16.04;81.06;99407.46;437235;1253;139402;-70
2023/07/13 19:57:43;;;;;;;6.80;5.10;;;;;;;15.86;81.62;99412.23;436656;1253;139774;-70
2023/07/13 20:07:53;;;;;;;4.70;4.00;;;;;;;15.68;82.88;99432.19;439491;1253;138638;-72
2023/07/13 20:18:01;;;;;;;6.00;4.80;;;;;;;15.53;84.22;99428.30;437859;1253;139530;-71
2023/07/13 20:28:09;;;;;;;6.70;4.30;;;;;;;15.43;84.67;99427.91;440098;1253;138794;-72
2023/07/13 20:38:15;;;;;;;;;;;;;;;15.29;85.00;99436.34;439812;1251;138936;-72
2023/07/13 20:48:28;;;;;;;6.50;5.10;;;;;;;15.20;85.95;99449.64;439973;1252;125866;-70
2023/07/13 20:58:34;;;;;;;7.50;5.40;;;;;;;15.20;87.02;99450.02;440196;1253;138773;-71
2023/07/13 21:08:39;;;;;;;5.00;4.60;;;;;;;15.33;88.02;99456.66;440186;1253;140099;-73
2023/07/13 21:18:46;;;;;;;6.70;5.50;;;;;;;15.41;88.32;99466.89;440220;1253;139854;-72
2023/07/13 21:28:52;;;;;;;6.40;5.20;;;;;;;15.52;88.87;99466.54;440110;1253;139868;-72
2023/07/13 21:39:01;;;;;;;6.90;6.30;;;;;;;15.67;89.27;99465.20;439960;1252;139070;-71
2023/07/13 21:49:06;;;;;;;6.90;6.20;;;;;;;15.71;89.34;99475.16;440071;1251;139349;-70
2023/07/13 21:59:21;;;;;;;6.20;5.70;;;;;;;15.77;89.71;99474.77;440536;1251;138638;-71
2023/07/13 22:09:27;;;;;;;6.00;5.50;;;;;;;15.80;89.76;99461.64;440097;1253;139274;-74
2023/07/13 22:19:34;;;;;;;6.10;5.40;;;;;;;15.80;89.74;99453.66;440093;1252;139662;-74
2023/07/13 22:29:39;;;;;;;6.40;5.90;;;;;;;15.69;89.64;99454.09;440196;1251;138758;-74
2023/07/13 22:39:46;;;;;;;5.60;5.10;;;;;;;15.50;90.04;99450.29;440399;1251;138836;-74
2023/07/13 22:49:52;;;;;;;6.10;5.40;;;;;;;15.31;90.56;99452.75;440418;1251;139196;-73
2023/07/13 22:59:57;;;;;;;15.00;6.60;;;;;;;15.10;90.76;99444.50;440218;1249;140925;-74
2023/07/13 23:10:10;;;;;;;5.90;5.50;;;;;;;14.91;91.16;99451.07;439972;1253;138901;-75
2023/07/13 23:20:23;;;;;;;7.50;6.70;;;;;;;14.71;91.48;99453.57;439814;1251;143222;-74
2023/07/13 23:30:31;;;;;;;7.10;6.50;;;;;;;14.59;92.31;99456.49;440179;1251;139618;-75
2023/07/13 23:40:37;;;;;;;6.30;5.70;;;;;;;14.46;92.49;99463.55;440255;1251;138966;-75
2023/07/13 23:50:45;;;;;;;7.90;6.00;;;;;;;14.36;92.61;99476.19;439840;1251;139167;-74
